createdAt,value
2024-02-02T00:01:41.388Z,74.74
2024-02-02T00:04:11.219Z,74.77
2024-02-02T00:06:41.416Z,74.78
2024-02-02T00:09:11.453Z,74.84
2024-02-02T00:11:49.393Z,75.00
2024-02-02T00:14:21.454Z,75.04
2024-02-02T00:16:51.684Z,75.07
2024-02-02T00:19:21.596Z,75.12
2024-02-02T00:21:54.326Z,75.18
2024-02-02T00:24:26.445Z,75.28
2024-02-02T00:26:56.463Z,75.17
2024-02-02T00:29:26.258Z,75.22
2024-02-02T00:31:56.086Z,75.22
2024-02-02T00:34:30.430Z,75.14
2024-02-02T00:37:00.345Z,75.14
2024-02-02T00:39:30.260Z,75.18
2024-02-02T00:42:00.362Z,75.29
2024-02-02T00:44:32.592Z,75.30
2024-02-02T00:47:02.438Z,75.36
2024-02-02T00:49:32.381Z,75.24
2024-02-02T00:52:05.025Z,75.25
2024-02-02T00:54:35.781Z,75.35
2024-02-02T00:57:08.469Z,75.37
2024-02-02T00:59:38.309Z,75.31
2024-02-02T01:02:08.088Z,75.23
2024-02-02T01:04:39.488Z,75.19
2024-02-02T01:07:10.220Z,75.25
2024-02-02T01:09:42.669Z,75.26
2024-02-02T01:12:13.096Z,75.38
2024-02-02T01:14:43.987Z,75.36
2024-02-02T01:17:14.403Z,75.35
2024-02-02T01:19:44.335Z,75.19
2024-02-02T01:22:14.457Z,75.17
2024-02-02T01:24:44.307Z,75.17
2024-02-02T01:27:14.982Z,75.19
2024-02-02T01:29:44.912Z,75.14
2024-02-02T01:32:14.737Z,75.26
2024-02-02T01:34:44.892Z,75.22
2024-02-02T01:37:17.337Z,75.32
2024-02-02T01:39:47.298Z,75.27
2024-02-02T01:42:17.279Z,75.35
2024-02-02T01:44:47.119Z,75.33
2024-02-02T01:47:19.616Z,75.27
2024-02-02T01:49:49.929Z,75.16
2024-02-02T01:52:20.123Z,75.39
2024-02-02T01:54:50.158Z,75.32
2024-02-02T01:57:20.755Z,75.38
2024-02-02T01:59:51.201Z,75.27
2024-02-02T02:02:21.293Z,75.26
2024-02-02T02:04:51.127Z,75.13
2024-02-02T02:07:21.077Z,74.98
2024-02-02T02:09:50.883Z,75.02
2024-02-02T02:12:20.793Z,74.98
2024-02-02T02:14:50.914Z,75.08
2024-02-02T02:17:20.823Z,75.02
2024-02-02T02:19:50.955Z,75.16
2024-02-02T02:22:20.906Z,75.14
2024-02-02T02:24:50.722Z,75.12
2024-02-02T02:27:23.167Z,75.06
2024-02-02T02:29:55.470Z,75.07
2024-02-02T02:32:25.686Z,75.21
2024-02-02T02:34:55.755Z,75.03
2024-02-02T02:37:25.561Z,75.05
2024-02-02T02:39:55.568Z,75.14
2024-02-02T02:42:25.516Z,75.17
2024-02-02T02:44:55.761Z,75.19
2024-02-02T02:47:25.752Z,75.36
2024-02-02T02:49:58.009Z,75.39
2024-02-02T02:52:28.026Z,75.32
2024-02-02T02:55:00.501Z,75.48
2024-02-02T02:57:30.563Z,75.33
2024-02-02T03:00:00.704Z,75.20
2024-02-02T03:02:33.097Z,75.24
2024-02-02T03:05:03.007Z,75.33
2024-02-02T03:07:32.859Z,75.31
2024-02-02T03:10:04.477Z,75.24
2024-02-02T03:12:34.265Z,75.31
2024-02-02T03:15:04.624Z,75.16
2024-02-02T03:17:34.606Z,75.22
2024-02-02T03:20:08.448Z,75.17
2024-02-02T03:22:38.557Z,75.08
2024-02-02T03:25:09.657Z,75.03
2024-02-02T03:27:39.416Z,74.95
2024-02-02T03:30:11.205Z,75.04
2024-02-02T03:32:42.757Z,74.89
2024-02-02T03:35:13.011Z,74.72
2024-02-02T03:37:42.802Z,74.56
2024-02-02T03:40:14.818Z,74.39
2024-02-02T03:42:45.075Z,74.35
2024-02-02T03:45:15.977Z,74.22
2024-02-02T03:47:45.800Z,74.19
2024-02-02T03:50:16.101Z,74.03
2024-02-02T03:52:48.995Z,73.89
2024-02-02T03:55:19.096Z,73.89
2024-02-02T03:57:53.553Z,73.84
2024-02-02T04:00:23.488Z,74.00
2024-02-02T04:02:54.648Z,73.92
2024-02-02T04:05:24.858Z,73.85
2024-02-02T04:07:54.862Z,73.82
2024-02-02T04:10:26.893Z,73.85
2024-02-02T04:12:59.003Z,73.66
2024-02-02T04:15:30.781Z,73.59
2024-02-02T04:18:03.758Z,73.52
2024-02-02T04:20:33.787Z,73.40
2024-02-02T04:23:03.874Z,73.48
2024-02-02T04:25:33.983Z,73.38
2024-02-02T04:28:05.378Z,73.18
2024-02-02T04:30:36.875Z,73.19
2024-02-02T04:33:07.762Z,73.08
2024-02-02T04:35:40.691Z,72.82
2024-02-02T04:38:10.500Z,73.00
2024-02-02T04:40:40.306Z,72.68
2024-02-02T04:43:13.139Z,72.71
2024-02-02T04:45:43.304Z,72.63
2024-02-02T04:48:13.495Z,72.66
2024-02-02T04:50:43.430Z,72.51
2024-02-02T04:53:14.415Z,72.49
2024-02-02T04:55:44.372Z,72.44
2024-02-02T04:58:14.277Z,72.41
2024-02-02T05:00:46.440Z,72.47
2024-02-02T05:03:16.195Z,72.67
2024-02-02T05:05:46.140Z,72.46
2024-02-02T05:08:17.044Z,72.59
2024-02-02T05:10:46.918Z,72.49
2024-02-02T05:13:16.775Z,72.63
2024-02-02T05:15:47.229Z,72.61
2024-02-02T05:18:17.345Z,72.47
2024-02-02T05:20:50.557Z,72.42
2024-02-02T05:23:20.773Z,72.45
2024-02-02T05:25:53.038Z,72.54
2024-02-02T05:28:22.983Z,72.37
2024-02-02T05:30:53.080Z,72.54
2024-02-02T05:33:23.152Z,72.61
2024-02-02T05:35:53.392Z,72.62
2024-02-02T05:38:25.412Z,72.66
2024-02-02T05:40:55.284Z,72.56
2024-02-02T05:43:25.187Z,72.66
2024-02-02T05:45:55.141Z,72.49
2024-02-02T05:48:25.151Z,72.71
2024-02-02T05:50:57.920Z,72.61
2024-02-02T05:53:30.171Z,72.62
2024-02-02T05:56:00.127Z,72.73
2024-02-02T05:58:30.004Z,72.64
2024-02-02T06:01:02.345Z,72.88
2024-02-02T06:03:34.582Z,72.99
2024-02-02T06:06:04.823Z,73.04
2024-02-02T06:08:35.029Z,73.19
2024-02-02T06:11:08.422Z,73.22
2024-02-02T06:13:38.244Z,73.28
2024-02-02T06:16:11.631Z,73.42
2024-02-02T06:18:41.605Z,73.28
2024-02-02T06:21:11.515Z,73.41
2024-02-02T06:23:41.337Z,73.44
2024-02-02T06:26:11.193Z,73.54
2024-02-02T06:28:43.177Z,73.60
2024-02-02T06:31:15.068Z,73.57
2024-02-02T06:33:45.116Z,73.57
2024-02-02T06:36:17.450Z,73.69
2024-02-02T06:38:47.344Z,73.61
2024-02-02T06:41:17.249Z,73.75
2024-02-02T06:43:47.698Z,73.58
2024-02-02T06:46:17.864Z,73.69
2024-02-02T06:48:49.020Z,73.67
2024-02-02T06:51:21.435Z,73.77
2024-02-02T06:53:52.630Z,73.69
2024-02-02T06:56:40.134Z,73.90
2024-02-02T06:59:10.463Z,73.97
2024-02-02T07:01:40.738Z,73.99
2024-02-02T07:04:17.600Z,74.10
2024-02-02T07:06:50.727Z,74.00
2024-02-02T07:09:30.739Z,73.96
2024-02-02T07:12:05.063Z,73.97
2024-02-02T07:14:48.722Z,74.06
2024-02-02T07:17:27.732Z,73.83
2024-02-02T07:19:58.605Z,73.98
2024-02-02T07:22:44.954Z,74.05
2024-02-02T07:25:18.708Z,74.14
2024-02-02T07:27:58.034Z,74.09
2024-02-02T07:30:57.668Z,73.99
2024-02-02T07:33:33.520Z,73.99
2024-02-02T07:36:05.137Z,74.10
2024-02-02T07:38:50.724Z,74.05
2024-02-02T07:41:25.807Z,73.96
2024-02-02T07:43:57.376Z,74.05
2024-02-02T07:46:27.326Z,74.12
2024-02-02T07:49:01.825Z,74.18
2024-02-02T07:51:31.756Z,74.21
2024-02-02T07:54:01.687Z,74.25
2024-02-02T07:56:31.636Z,74.15
2024-02-02T07:59:04.015Z,74.20
2024-02-02T08:01:36.952Z,73.87
2024-02-02T08:04:07.293Z,74.07
2024-02-02T08:06:37.389Z,74.02
2024-02-02T08:09:10.553Z,74.04
2024-02-02T08:11:42.924Z,74.18
2024-02-02T08:14:12.829Z,74.19
2024-02-02T08:16:42.768Z,74.45
2024-02-02T08:19:12.592Z,74.34
2024-02-02T08:21:42.526Z,74.40
2024-02-02T08:24:12.373Z,74.44
2024-02-02T08:26:42.269Z,74.40
2024-02-02T08:29:14.350Z,74.48
2024-02-02T08:31:47.198Z,74.57
2024-02-02T08:34:17.531Z,74.50
2024-02-02T08:36:49.886Z,74.66
2024-02-02T08:39:20.020Z,74.69
2024-02-02T08:41:50.001Z,74.84
2024-02-02T08:44:24.287Z,74.80
2024-02-02T08:46:57.031Z,74.77
2024-02-02T08:49:47.483Z,74.87
2024-02-02T08:52:28.281Z,74.84
2024-02-02T08:54:58.685Z,75.11
2024-02-02T08:57:37.656Z,75.15
2024-02-02T09:00:37.115Z,75.42
2024-02-02T09:03:23.957Z,75.66
2024-02-02T09:05:58.618Z,75.58
2024-02-02T09:08:35.343Z,75.68
2024-02-02T09:11:27.933Z,75.83
2024-02-02T09:14:08.930Z,75.76
2024-02-02T09:16:44.416Z,75.84
2024-02-02T09:19:29.269Z,75.81
2024-02-02T09:22:00.918Z,75.97
2024-02-02T09:24:42.449Z,75.99
2024-02-02T09:27:19.688Z,76.13
2024-02-02T09:29:52.141Z,76.08
2024-02-02T09:32:22.418Z,76.15
2024-02-02T09:34:52.864Z,76.12
2024-02-02T09:37:26.666Z,76.17
2024-02-02T09:40:00.160Z,76.25
2024-02-02T09:43:02.871Z,76.31
2024-02-02T09:45:47.579Z,76.42
2024-02-02T09:48:30.701Z,76.37
2024-02-02T09:51:11.094Z,76.53
2024-02-02T09:54:06.104Z,76.40
2024-02-02T09:56:48.727Z,76.46
2024-02-02T09:59:26.885Z,76.60
2024-02-02T10:02:12.859Z,76.70
2024-02-02T10:04:58.427Z,76.84
2024-02-02T10:07:40.110Z,76.71
2024-02-02T10:10:34.038Z,76.85
2024-02-02T10:13:14.736Z,77.06
2024-02-02T10:16:06.305Z,77.02
2024-02-02T10:19:00.731Z,77.02
2024-02-02T10:21:49.288Z,77.18
2024-02-02T10:24:41.070Z,77.26
2024-02-02T10:27:33.546Z,77.32
2024-02-02T10:30:13.153Z,77.30
2024-02-02T10:33:10.225Z,77.62
2024-02-02T10:35:50.871Z,77.63
2024-02-02T10:38:35.193Z,77.71
2024-02-02T10:41:16.925Z,77.71
2024-02-02T10:43:58.646Z,77.82
2024-02-02T10:46:39.288Z,77.88
2024-02-02T10:49:29.972Z,77.94
2024-02-02T10:52:16.701Z,77.82
2024-02-02T10:55:03.380Z,77.97
2024-02-02T10:57:38.125Z,78.00
2024-02-02T11:00:16.890Z,78.13
2024-02-02T11:03:09.102Z,78.15
2024-02-02T11:05:49.252Z,78.33
2024-02-02T11:08:22.605Z,78.38
2024-02-02T11:10:58.148Z,78.32
2024-02-02T11:13:43.096Z,78.18
2024-02-02T11:16:38.755Z,78.20
2024-02-02T11:19:23.146Z,78.34
2024-02-02T11:22:08.931Z,78.37
2024-02-02T11:24:54.343Z,78.47
2024-02-02T11:27:34.427Z,78.42
2024-02-02T11:30:07.582Z,78.54
2024-02-02T11:32:58.637Z,78.54
2024-02-02T11:35:38.313Z,78.37
2024-02-02T11:38:17.435Z,78.46
2024-02-02T11:40:48.601Z,78.55
2024-02-02T11:43:21.769Z,78.60
2024-02-02T11:45:53.623Z,78.51
2024-02-02T11:48:33.072Z,78.62
2024-02-02T11:51:10.266Z,78.62
2024-02-02T11:53:46.354Z,78.41
2024-02-02T11:56:22.499Z,78.34
2024-02-02T11:59:05.559Z,78.49
2024-02-02T12:01:52.301Z,78.71
2024-02-02T12:04:37.573Z,78.60
2024-02-02T12:07:20.026Z,78.40
2024-02-02T12:09:55.222Z,78.63
2024-02-02T12:12:41.723Z,78.62
2024-02-02T12:15:12.432Z,78.78
2024-02-02T12:17:42.943Z,78.55
2024-02-02T12:20:18.742Z,78.69
2024-02-02T12:22:49.485Z,78.67
2024-02-02T12:25:20.437Z,78.77
2024-02-02T12:27:50.558Z,78.76
2024-02-02T12:30:20.702Z,78.75
2024-02-02T12:32:58.639Z,78.52
2024-02-02T12:35:31.300Z,78.73
2024-02-02T12:38:01.762Z,78.64
2024-02-02T12:40:32.221Z,78.81
2024-02-02T12:43:03.844Z,78.75
2024-02-02T12:45:34.993Z,78.58
2024-02-02T12:48:07.030Z,78.49
2024-02-02T12:50:37.623Z,78.55
2024-02-02T12:53:07.629Z,78.62
2024-02-02T12:55:37.541Z,78.62
2024-02-02T12:58:10.988Z,78.53
2024-02-02T13:00:41.945Z,78.63
2024-02-02T13:03:14.604Z,78.60
2024-02-02T13:05:46.101Z,78.42
2024-02-02T13:08:26.660Z,78.35
2024-02-02T13:11:00.536Z,78.45
2024-02-02T13:13:30.519Z,78.41
2024-02-02T13:16:00.534Z,78.21
2024-02-02T13:18:37.645Z,78.21
2024-02-02T13:21:23.420Z,78.18
2024-02-02T13:23:58.025Z,78.29
2024-02-02T13:26:37.756Z,78.26
2024-02-02T13:29:08.825Z,78.22
2024-02-02T13:31:42.099Z,78.21
2024-02-02T13:34:16.145Z,78.23
2024-02-02T13:36:50.891Z,78.23
2024-02-02T13:39:24.556Z,78.30
2024-02-02T13:41:55.153Z,78.31
2024-02-02T13:44:26.808Z,78.19
2024-02-02T13:46:58.626Z,78.20
2024-02-02T13:49:34.210Z,78.05
2024-02-02T13:52:07.653Z,78.09
2024-02-02T13:54:41.312Z,78.27
2024-02-02T13:57:15.960Z,78.28
2024-02-02T13:59:46.754Z,78.29
2024-02-02T14:02:16.563Z,78.35
2024-02-02T14:04:48.954Z,78.25
2024-02-02T14:07:21.771Z,78.22
2024-02-02T14:10:00.594Z,78.40
2024-02-02T14:12:36.589Z,78.50
2024-02-02T14:15:11.121Z,78.23
2024-02-02T14:17:43.675Z,78.36
2024-02-02T14:20:17.585Z,78.36
2024-02-02T14:22:47.427Z,78.26
2024-02-02T14:25:30.793Z,78.29
2024-02-02T14:28:00.681Z,78.25
2024-02-02T14:30:33.638Z,78.38
2024-02-02T14:33:17.308Z,78.44
2024-02-02T14:35:54.624Z,78.34
2024-02-02T14:38:24.563Z,78.26
2024-02-02T14:41:04.912Z,78.30
2024-02-02T14:43:35.940Z,78.39
2024-02-02T14:46:08.691Z,78.52
2024-02-02T14:48:41.198Z,78.40
2024-02-02T14:51:13.596Z,78.57
2024-02-02T14:53:43.616Z,78.50
2024-02-02T14:56:13.909Z,78.53
2024-02-02T14:58:44.259Z,78.40
2024-02-02T15:01:17.034Z,78.48
2024-02-02T15:03:46.918Z,78.79
2024-02-02T15:06:17.433Z,78.67
2024-02-02T15:08:47.796Z,78.71
2024-02-02T15:11:17.750Z,78.64
2024-02-02T15:13:50.936Z,78.62
2024-02-02T15:16:20.956Z,78.73
2024-02-02T15:18:53.400Z,78.71
2024-02-02T15:21:23.429Z,78.77
2024-02-02T15:23:53.489Z,78.86
2024-02-02T15:26:23.477Z,78.89
2024-02-02T15:28:53.367Z,78.96
2024-02-02T15:31:23.882Z,78.96
2024-02-02T15:33:58.263Z,79.02
2024-02-02T15:36:29.993Z,79.08
2024-02-02T15:39:12.866Z,79.30
2024-02-02T15:41:52.321Z,79.26
2024-02-02T15:44:22.468Z,79.25
2024-02-02T15:46:52.380Z,79.34
2024-02-02T15:49:24.466Z,79.25
2024-02-02T15:51:56.556Z,79.06
2024-02-02T15:54:26.439Z,79.11
2024-02-02T15:56:57.701Z,79.22
2024-02-02T15:59:27.518Z,79.40
2024-02-02T16:01:59.630Z,79.40
2024-02-02T16:04:29.780Z,79.40
2024-02-02T16:07:06.129Z,79.44
2024-02-02T16:09:40.915Z,79.43
2024-02-02T16:12:15.924Z,79.49
2024-02-02T16:14:47.968Z,79.63
2024-02-02T16:17:17.860Z,79.53
2024-02-02T16:19:47.912Z,79.72
2024-02-02T16:22:22.812Z,79.76
2024-02-02T16:24:53.208Z,79.70
2024-02-02T16:27:25.802Z,79.72
2024-02-02T16:29:55.884Z,79.74
2024-02-02T16:32:25.939Z,79.66
2024-02-02T16:34:55.902Z,79.84
2024-02-02T16:37:26.010Z,79.81
2024-02-02T16:40:00.668Z,79.68
2024-02-02T16:42:30.670Z,79.56
2024-02-02T16:45:03.874Z,79.59
2024-02-02T16:47:33.758Z,79.67
2024-02-02T16:50:06.718Z,79.68
2024-02-02T16:52:39.053Z,79.70
2024-02-02T16:55:11.240Z,79.75
2024-02-02T16:57:41.746Z,79.68
2024-02-02T17:00:12.968Z,79.71
2024-02-02T17:02:42.849Z,79.79
2024-02-02T17:05:12.854Z,79.81
2024-02-02T17:07:45.907Z,79.80
2024-02-02T17:10:16.039Z,79.91
2024-02-02T17:12:46.345Z,80.04
2024-02-02T17:15:17.063Z,80.06
2024-02-02T17:17:49.324Z,80.11
2024-02-02T17:20:19.507Z,79.98
2024-02-02T17:22:49.593Z,79.82
2024-02-02T17:25:20.427Z,79.94
2024-02-02T17:27:50.311Z,80.01
2024-02-02T17:30:23.097Z,80.00
2024-02-02T17:32:57.468Z,80.17
2024-02-02T17:35:34.232Z,80.10
2024-02-02T17:38:15.084Z,79.96
2024-02-02T17:40:47.601Z,79.96
2024-02-02T17:43:18.553Z,79.93
2024-02-02T17:45:49.173Z,80.13
2024-02-02T17:48:21.802Z,80.03
2024-02-02T17:50:52.067Z,80.11
2024-02-02T17:53:22.216Z,80.10
2024-02-02T17:55:52.094Z,80.14
2024-02-02T17:58:22.065Z,80.14
2024-02-02T18:00:54.412Z,80.12
2024-02-02T18:03:26.923Z,80.15
2024-02-02T18:05:57.368Z,80.14
2024-02-02T18:08:30.042Z,80.10
2024-02-02T18:11:07.185Z,80.18
2024-02-02T18:13:42.319Z,80.12
2024-02-02T18:16:14.334Z,80.10
2024-02-02T18:18:46.899Z,80.12
2024-02-02T18:21:17.131Z,80.17
2024-02-02T18:23:47.004Z,80.12
2024-02-02T18:26:17.184Z,80.22
2024-02-02T18:28:49.582Z,80.20
2024-02-02T18:31:19.830Z,80.27
2024-02-02T18:33:53.286Z,80.34
2024-02-02T18:36:23.383Z,80.26
2024-02-02T18:38:53.377Z,80.12
2024-02-02T18:41:33.020Z,80.10
2024-02-02T18:44:03.639Z,80.12
2024-02-02T18:46:33.727Z,80.11
2024-02-02T18:49:05.966Z,80.28
2024-02-02T18:51:35.958Z,80.22
2024-02-02T18:54:06.851Z,80.18
2024-02-02T18:56:36.669Z,80.31
2024-02-02T18:59:07.335Z,80.31
2024-02-02T19:01:37.846Z,80.44
2024-02-02T19:04:12.461Z,80.53
2024-02-02T19:06:42.595Z,80.42
2024-02-02T19:09:14.623Z,80.29
2024-02-02T19:11:44.453Z,80.30
2024-02-02T19:14:19.837Z,80.36
2024-02-02T19:16:52.151Z,80.44
2024-02-02T19:19:22.500Z,80.42
2024-02-02T19:21:56.470Z,80.48
2024-02-02T19:24:26.481Z,80.50
2024-02-02T19:26:56.609Z,80.33
2024-02-02T19:29:28.705Z,80.42
2024-02-02T19:32:00.682Z,80.29
2024-02-02T19:34:30.960Z,80.39
2024-02-02T19:37:02.632Z,80.42
2024-02-02T19:39:32.614Z,80.46
2024-02-02T19:42:02.605Z,80.42
2024-02-02T19:44:32.608Z,80.38
2024-02-02T19:47:02.516Z,80.34
2024-02-02T19:49:35.186Z,80.35
2024-02-02T19:52:05.961Z,80.21
2024-02-02T19:54:37.174Z,80.33
2024-02-02T19:57:07.502Z,80.40
2024-02-02T19:59:39.671Z,80.43
2024-02-02T20:02:11.282Z,80.50
2024-02-02T20:04:43.651Z,80.39
2024-02-02T20:07:13.857Z,80.29
2024-02-02T20:09:43.786Z,80.20
2024-02-02T20:12:13.714Z,80.27
2024-02-02T20:14:44.029Z,80.18
2024-02-02T20:17:16.754Z,80.31
2024-02-02T20:19:47.158Z,80.16
2024-02-02T20:22:19.637Z,80.26
2024-02-02T20:24:49.665Z,80.21
2024-02-02T20:27:19.890Z,80.11
2024-02-02T20:29:50.789Z,80.11
2024-02-02T20:32:20.595Z,80.05
2024-02-02T20:34:53.506Z,80.17
2024-02-02T20:37:23.858Z,80.08
2024-02-02T20:39:53.894Z,80.06
2024-02-02T20:42:23.961Z,79.90
2024-02-02T20:44:53.917Z,79.96
2024-02-02T20:47:25.972Z,80.19
2024-02-02T20:49:55.906Z,80.02
2024-02-02T20:52:25.890Z,80.06
2024-02-02T20:54:55.891Z,80.17
2024-02-02T20:57:25.883Z,79.86
2024-02-02T20:59:56.124Z,79.83
2024-02-02T21:02:26.329Z,79.79
2024-02-02T21:04:58.303Z,79.90
2024-02-02T21:07:32.894Z,80.11
2024-02-02T21:10:03.411Z,79.96
2024-02-02T21:12:33.298Z,80.02
2024-02-02T21:15:05.203Z,79.88
2024-02-02T21:17:37.930Z,79.83
2024-02-02T21:20:11.398Z,79.90
2024-02-02T21:22:41.175Z,79.82
2024-02-02T21:25:13.732Z,79.73
2024-02-02T21:27:44.560Z,79.78
2024-02-02T21:30:17.764Z,79.77
2024-02-02T21:32:47.734Z,79.85
2024-02-02T21:35:18.701Z,79.77
2024-02-02T21:37:51.032Z,79.54
2024-02-02T21:40:21.467Z,79.75
2024-02-02T21:42:55.101Z,79.68
2024-02-02T21:45:28.795Z,79.54
2024-02-02T21:47:58.871Z,79.59
2024-02-02T21:50:28.799Z,79.54
2024-02-02T21:52:58.919Z,79.41
2024-02-02T21:55:28.990Z,79.32
2024-02-02T21:57:59.306Z,79.26
2024-02-02T22:00:29.337Z,79.23
2024-02-02T22:03:01.460Z,79.16
2024-02-02T22:05:36.315Z,79.04
2024-02-02T22:08:11.131Z,79.02
2024-02-02T22:10:40.994Z,79.13
2024-02-02T22:13:11.648Z,78.96
2024-02-02T22:15:41.537Z,78.95
2024-02-02T22:18:12.162Z,79.07
2024-02-02T22:20:46.288Z,78.93
2024-02-02T22:23:16.520Z,78.92
2024-02-02T22:25:48.544Z,78.95
2024-02-02T22:28:20.850Z,78.88
2024-02-02T22:30:53.475Z,79.02
2024-02-02T22:33:23.630Z,78.90
2024-02-02T22:35:53.550Z,79.04
2024-02-02T22:38:26.877Z,78.98
2024-02-02T22:41:01.394Z,78.99
2024-02-02T22:43:37.019Z,78.94
2024-02-02T22:46:06.935Z,78.90
2024-02-02T22:48:36.905Z,78.79
2024-02-02T22:51:09.481Z,78.73
2024-02-02T22:53:39.927Z,78.73
2024-02-02T22:56:12.075Z,78.75
2024-02-02T22:58:44.310Z,78.78
2024-02-02T23:01:16.711Z,79.02
2024-02-02T23:03:46.686Z,78.78
2024-02-02T23:06:16.739Z,78.82
2024-02-02T23:08:47.094Z,78.87
2024-02-02T23:11:18.039Z,78.91
2024-02-02T23:13:48.138Z,79.08
2024-02-02T23:16:20.630Z,79.01
2024-02-02T23:18:50.620Z,78.96
2024-02-02T23:21:23.300Z,78.99
2024-02-02T23:23:53.082Z,79.02
2024-02-02T23:26:22.909Z,78.96
2024-02-02T23:28:52.867Z,79.09
2024-02-02T23:31:22.743Z,79.28
2024-02-02T23:33:52.898Z,79.16
2024-02-02T23:36:23.693Z,79.18
2024-02-02T23:38:53.593Z,79.13
2024-02-02T23:41:23.426Z,79.11
2024-02-02T23:43:53.403Z,79.11
2024-02-02T23:46:23.178Z,79.17
2024-02-02T23:48:53.188Z,79.21
2024-02-02T23:51:23.443Z,79.10
2024-02-02T23:53:55.782Z,79.25
2024-02-02T23:56:28.126Z,79.21
2024-02-02T23:58:57.925Z,79.30
